Time;durP1;ratioP1;P1;durP2;ratioP2;P2;SDS_P1;SDS_P2;PMS_P1;PMS_P2;Temp;Humidity;BMP_temperature;BMP_pressure;BME280_temperature;BME280_humidity;BME280_pressure;Samples;Min_cycle;Max_cycle;Signal;HPM_P1;HPM_P2
2021/04/27 00:01:41;;;;;;;6.22;3.92;;;;;;;;;;5054105;28;20048;-62
2021/04/27 00:04:26;;;;;;;11.02;5.35;;;;;;;;;;5054353;28;20151;-62
2021/04/27 00:07:12;;;;;;;7.80;4.65;;;;;;;;;;5054286;28;20443;-62
2021/04/27 00:09:57;;;;;;;7.82;4.18;;;;;;;;;;5053486;28;20056;-62
2021/04/27 00:12:43;;;;;;;6.43;4.63;;;;;;;;;;5054397;28;20438;-62
2021/04/27 00:15:28;;;;;;;10.27;4.25;;;;;;;;;;5053837;28;20056;-62
2021/04/27 00:18:13;;;;;;;6.47;4.32;;;;;;;;;;5053891;28;20572;-62
2021/04/27 00:20:59;;;;;;;9.05;4.55;;;;;;;;;;5033694;28;20426;-62
2021/04/27 00:23:45;;;;;;;9.10;4.75;;;;;;;;;;5034119;28;20060;-62
2021/04/27 00:26:30;;;;;;;6.68;4.57;;;;;;;;;;5033785;28;20093;-62
2021/04/27 00:29:16;;;;;;;7.22;4.90;;;;;;;;;;5037327;28;20037;-63
2021/04/27 00:32:01;;;;;;;8.40;4.90;;;;;;;;;;5053616;28;20499;-62
2021/04/27 00:34:47;;;;;;;11.30;5.40;;;;;;;;;;5053660;28;20185;-62
2021/04/27 00:37:33;;;;;;;6.03;4.63;;;;;;;;;;5053593;28;20087;-62
2021/04/27 00:40:18;;;;;;;6.25;4.38;;;;;;;;;;5053132;28;20049;-62
2021/04/27 00:43:04;;;;;;;9.07;4.38;;;;;;;;;;5053444;28;20613;-62
2021/04/27 00:45:49;;;;;;;9.68;5.00;;;;;;;;;;5038428;28;20045;-62
2021/04/27 00:48:34;;;;;;;5.95;4.57;;;;;;;;;;5053281;28;20045;-62
2021/04/27 00:51:20;;;;;;;10.13;4.68;;;;;;;;;;5053284;28;20049;-62
2021/04/27 00:54:07;;;;;;;9.00;4.38;;;;;;;;;;5053465;28;20075;-62
2021/04/27 00:56:52;;;;;;;6.72;4.00;;;;;;;;;;5038636;28;20052;-62
2021/04/27 00:59:37;;;;;;;8.18;4.10;;;;;;;;;;5052811;28;20103;-62
2021/04/27 01:02:23;;;;;;;7.25;4.20;;;;;;;;;;5033418;28;20050;-62
2021/04/27 01:05:15;;;;;;;8.65;4.88;;;;;;;;;;5033175;28;20068;-60
2021/04/27 01:08:21;;;;;;;9.67;4.77;;;;;;;;;;5018201;28;20041;-62
2021/04/27 01:11:14;;;;;;;10.65;4.63;;;;;;;;;;5039106;28;20052;-62
2021/04/27 01:14:03;;;;;;;5.43;3.95;;;;;;;;;;5037852;28;20049;-62
2021/04/27 01:16:51;;;;;;;10.77;5.53;;;;;;;;;;5052823;28;20538;-62
2021/04/27 01:19:43;;;;;;;8.70;4.70;;;;;;;;;;5024372;28;20406;-62
2021/04/27 01:22:47;;;;;;;11.25;4.85;;;;;;;;;;5037448;28;20136;-62
2021/04/27 01:25:35;;;;;;;8.90;5.50;;;;;;;;;;5052682;28;20510;-61
2021/04/27 01:28:22;;;;;;;9.88;5.00;;;;;;;;;;5037560;28;20049;-62
2021/04/27 01:31:08;;;;;;;10.80;5.18;;;;;;;;;;5052109;28;20048;-62
2021/04/27 01:33:56;;;;;;;9.95;5.57;;;;;;;;;;5024498;28;20045;-62
2021/04/27 01:36:41;;;;;;;11.20;5.65;;;;;;;;;;5052618;28;20052;-61
2021/04/27 01:39:27;;;;;;;13.40;5.90;;;;;;;;;;5037216;28;20041;-62
2021/04/27 01:42:12;;;;;;;12.35;5.00;;;;;;;;;;5037543;28;20052;-61
2021/04/27 01:44:59;;;;;;;10.70;5.68;;;;;;;;;;5037357;28;20105;-62
2021/04/27 01:47:44;;;;;;;6.55;5.28;;;;;;;;;;5023022;28;20060;-62
2021/04/27 01:50:30;;;;;;;9.73;5.55;;;;;;;;;;5036790;28;20041;-61
2021/04/27 01:53:39;;;;;;;14.75;5.93;;;;;;;;;;5040353;28;20075;-62
2021/04/27 01:56:24;;;;;;;14.70;6.25;;;;;;;;;;5052236;28;20494;-62
2021/04/27 01:59:09;;;;;;;13.50;5.97;;;;;;;;;;5052249;28;20136;-62
2021/04/27 02:02:00;;;;;;;9.10;5.70;;;;;;;;;;5036933;28;20048;-61
2021/04/27 02:04:46;;;;;;;10.02;5.93;;;;;;;;;;5032272;28;20052;-62
2021/04/27 02:08:01;;;;;;;11.45;6.40;;;;;;;;;;5026620;28;20049;-62
2021/04/27 02:10:50;;;;;;;9.32;5.57;;;;;;;;;;5031814;28;20494;-62
2021/04/27 02:13:36;;;;;;;11.15;6.75;;;;;;;;;;5042417;28;20057;-62
2021/04/27 02:16:24;;;;;;;10.70;6.72;;;;;;;;;;5036938;28;20099;-62
2021/04/27 02:19:10;;;;;;;10.48;6.35;;;;;;;;;;5022950;28;20045;-61
2021/04/27 02:22:04;;;;;;;11.25;6.13;;;;;;;;;;5036798;28;20103;-62
2021/04/27 02:25:01;;;;;;;11.73;6.78;;;;;;;;;;5035591;28;20049;-62
2021/04/27 02:27:47;;;;;;;11.77;6.75;;;;;;;;;;5036181;28;20399;-63
2021/04/27 02:30:32;;;;;;;9.73;6.43;;;;;;;;;;5051607;28;20049;-62
2021/04/27 02:33:18;;;;;;;12.77;6.97;;;;;;;;;;5036650;28;20071;-62
2021/04/27 02:36:03;;;;;;;10.48;6.55;;;;;;;;;;5037089;28;20049;-62
2021/04/27 02:39:01;;;;;;;12.88;7.10;;;;;;;;;;5024575;28;20067;-62
2021/04/27 02:41:46;;;;;;;12.95;6.70;;;;;;;;;;5036545;28;20049;-61
2021/04/27 02:44:52;;;;;;;14.70;7.10;;;;;;;;;;5051631;28;20045;-62
2021/04/27 02:47:47;;;;;;;11.65;6.68;;;;;;;;;;5036606;28;20041;-62
2021/04/27 02:50:33;;;;;;;9.02;7.13;;;;;;;;;;5051188;28;20495;-62
2021/04/27 02:53:18;;;;;;;14.77;8.00;;;;;;;;;;5036652;28;20122;-61
2021/04/27 02:56:04;;;;;;;9.60;6.00;;;;;;;;;;5030727;28;20064;-63
2021/04/27 02:58:52;;;;;;;15.73;7.65;;;;;;;;;;5016819;28;20570;-62
2021/04/27 03:01:37;;;;;;;13.05;6.00;;;;;;;;;;5034634;28;20395;-62
2021/04/27 03:04:26;;;;;;;10.95;7.40;;;;;;;;;;5037976;28;20666;-62
2021/04/27 03:07:26;;;;;;;11.07;6.43;;;;;;;;;;5040113;28;20044;-62
2021/04/27 03:10:11;;;;;;;11.85;7.05;;;;;;;;;;5039949;28;20124;-62
2021/04/27 03:12:57;;;;;;;9.88;6.65;;;;;;;;;;5040104;28;20045;-62
2021/04/27 03:15:44;;;;;;;13.48;7.07;;;;;;;;;;5039943;28;20051;-61
2021/04/27 03:18:29;;;;;;;15.57;6.97;;;;;;;;;;5039919;28;20036;-62
2021/04/27 03:21:15;;;;;;;11.32;6.68;;;;;;;;;;5054823;28;20041;-62
2021/04/27 03:24:02;;;;;;;13.57;7.18;;;;;;;;;;5054118;28;20087;-62
2021/04/27 03:26:47;;;;;;;11.77;6.63;;;;;;;;;;5039684;28;20048;-62
2021/04/27 03:29:44;;;;;;;11.70;6.47;;;;;;;;;;5039394;28;20044;-62
2021/04/27 03:32:29;;;;;;;13.13;7.50;;;;;;;;;;5039932;28;20061;-61
2021/04/27 03:35:15;;;;;;;17.70;7.95;;;;;;;;;;5054694;28;20064;-61
2021/04/27 03:38:01;;;;;;;11.20;7.45;;;;;;;;;;5039641;28;20052;-62
2021/04/27 03:40:46;;;;;;;12.60;7.57;;;;;;;;;;5054605;28;20426;-62
2021/04/27 03:43:37;;;;;;;16.85;9.18;;;;;;;;;;5039707;28;20075;-62
2021/04/27 03:46:22;;;;;;;10.93;8.13;;;;;;;;;;5054302;28;20045;-61
2021/04/27 03:49:07;;;;;;;10.98;7.15;;;;;;;;;;5054523;28;20053;-61
2021/04/27 03:51:53;;;;;;;13.88;8.45;;;;;;;;;;5039652;28;20406;-62
2021/04/27 03:54:38;;;;;;;11.60;7.75;;;;;;;;;;5054461;28;20055;-62
2021/04/27 03:57:23;;;;;;;13.00;8.00;;;;;;;;;;5054327;28;20045;-62
2021/04/27 04:00:18;;;;;;;15.00;7.93;;;;;;;;;;5039057;28;20060;-62
2021/04/27 04:03:07;;;;;;;15.02;8.63;;;;;;;;;;5039298;28;20068;-62
2021/04/27 04:05:53;;;;;;;13.13;7.15;;;;;;;;;;5039202;28;20041;-62
2021/04/27 04:09:05;;;;;;;11.68;8.35;;;;;;;;;;5034130;28;20041;-62
2021/04/27 04:12:01;;;;;;;17.52;8.02;;;;;;;;;;5032826;28;20068;-62
2021/04/27 04:14:47;;;;;;;19.65;9.02;;;;;;;;;;5032698;28;20049;-62
2021/04/27 04:17:40;;;;;;;13.80;8.05;;;;;;;;;;5041024;28;20049;-61
2021/04/27 04:20:25;;;;;;;20.98;9.77;;;;;;;;;;5053402;28;20069;-62
2021/04/27 04:23:34;;;;;;;15.50;9.68;;;;;;;;;;5038843;28;20045;-62
2021/04/27 04:26:19;;;;;;;12.55;8.65;;;;;;;;;;5053976;28;20044;-62
2021/04/27 04:29:25;;;;;;;15.00;9.02;;;;;;;;;;5052860;28;20051;-61
2021/04/27 04:32:42;;;;;;;16.17;8.98;;;;;;;;;;5053667;28;20091;-62
2021/04/27 04:35:47;;;;;;;11.95;8.68;;;;;;;;;;5053650;28;20107;-62
2021/04/27 04:38:52;;;;;;;10.75;7.40;;;;;;;;;;5037274;28;20045;-62
2021/04/27 04:41:57;;;;;;;11.63;8.73;;;;;;;;;;5053487;28;20120;-62
2021/04/27 04:45:08;;;;;;;13.88;9.35;;;;;;;;;;5053430;28;20049;-62
2021/04/27 04:48:12;;;;;;;12.05;8.20;;;;;;;;;;5053241;28;20095;-63
2021/04/27 04:51:27;;;;;;;16.08;8.35;;;;;;;;;;5037937;28;20495;-63
2021/04/27 04:54:19;;;;;;;11.00;8.45;;;;;;;;;;5038289;28;20053;-62
2021/04/27 04:57:05;;;;;;;14.90;8.77;;;;;;;;;;5038254;28;20095;-63
2021/04/27 04:59:50;;;;;;;14.05;8.23;;;;;;;;;;5052868;28;20057;-63
2021/04/27 05:02:36;;;;;;;16.10;8.95;;;;;;;;;;5037496;28;20079;-62
2021/04/27 05:05:41;;;;;;;23.00;9.05;;;;;;;;;;5051139;28;20488;-62
2021/04/27 05:08:52;;;;;;;15.93;7.78;;;;;;;;;;5052393;28;21431;-62
2021/04/27 05:11:57;;;;;;;12.38;8.57;;;;;;;;;;5051210;28;20182;-63
2021/04/27 05:14:51;;;;;;;14.38;8.93;;;;;;;;;;5052999;28;20048;-63
2021/04/27 05:17:37;;;;;;;15.35;7.55;;;;;;;;;;5052933;28;20049;-62
2021/04/27 05:20:23;;;;;;;9.52;7.03;;;;;;;;;;5052180;28;20053;-62
2021/04/27 05:23:08;;;;;;;10.25;7.38;;;;;;;;;;5036895;28;20400;-62
2021/04/27 05:26:03;;;;;;;8.43;6.50;;;;;;;;;;5037115;28;20052;-61
2021/04/27 05:28:49;;;;;;;12.90;6.40;;;;;;;;;;5049826;28;20487;-62
2021/04/27 05:31:35;;;;;;;6.25;5.32;;;;;;;;;;5052278;28;20056;-62
2021/04/27 05:34:20;;;;;;;9.48;5.82;;;;;;;;;;5051999;28;20077;-62
2021/04/27 05:37:06;;;;;;;5.63;4.78;;;;;;;;;;5052519;28;20099;-62
2021/04/27 05:39:52;;;;;;;5.28;4.72;;;;;;;;;;5051938;28;20041;-62
2021/04/27 05:42:37;;;;;;;6.60;5.00;;;;;;;;;;5052547;28;20056;-62
2021/04/27 05:45:22;;;;;;;5.70;4.38;;;;;;;;;;5052416;28;20037;-62
2021/04/27 05:48:08;;;;;;;14.35;6.20;;;;;;;;;;5052516;28;20103;-62
2021/04/27 05:50:53;;;;;;;9.07;5.40;;;;;;;;;;5051759;28;20045;-62
2021/04/27 05:53:39;;;;;;;7.50;4.90;;;;;;;;;;5052210;28;20049;-62
2021/04/27 05:56:24;;;;;;;5.90;4.43;;;;;;;;;;5052323;28;20052;-62
2021/04/27 05:59:10;;;;;;;6.13;4.10;;;;;;;;;;5052107;28;20057;-62
2021/04/27 06:01:56;;;;;;;5.80;4.13;;;;;;;;;;5051871;28;20053;-62
2021/04/27 06:04:41;;;;;;;7.93;4.55;;;;;;;;;;5052316;28;20053;-62
2021/04/27 06:07:26;;;;;;;5.18;4.28;;;;;;;;;;5051916;28;20099;-62
2021/04/27 06:10:12;;;;;;;6.75;4.18;;;;;;;;;;5051741;28;20120;-62
2021/04/27 06:12:57;;;;;;;5.00;4.20;;;;;;;;;;5052158;28;20128;-62
2021/04/27 06:15:42;;;;;;;8.63;3.80;;;;;;;;;;5052125;28;20070;-62
2021/04/27 06:18:28;;;;;;;5.43;3.85;;;;;;;;;;5051753;28;20080;-62
2021/04/27 06:21:13;;;;;;;4.78;3.47;;;;;;;;;;5051632;28;20056;-62
2021/04/27 06:23:58;;;;;;;7.32;3.45;;;;;;;;;;5051937;28;20049;-62
2021/04/27 06:26:44;;;;;;;4.68;3.45;;;;;;;;;;5036696;28;20567;-62
2021/04/27 06:29:29;;;;;;;6.82;3.67;;;;;;;;;;5051707;28;20442;-62
2021/04/27 06:32:14;;;;;;;7.25;3.38;;;;;;;;;;5051841;28;20128;-62
2021/04/27 06:35:00;;;;;;;6.28;3.00;;;;;;;;;;5054335;28;20094;-62
2021/04/27 06:37:46;;;;;;;4.90;3.05;;;;;;;;;;5056038;28;20057;-62
2021/04/27 06:40:31;;;;;;;6.53;2.58;;;;;;;;;;5055353;28;20041;-62
2021/04/27 06:43:16;;;;;;;4.75;2.88;;;;;;;;;;5055734;28;20049;-62
2021/04/27 06:46:02;;;;;;;6.00;2.70;;;;;;;;;;5055975;28;20419;-62
2021/04/27 06:48:47;;;;;;;5.30;2.40;;;;;;;;;;5055667;28;20053;-62
2021/04/27 06:51:33;;;;;;;5.20;2.55;;;;;;;;;;5112271;22;20040;-62
2021/04/27 06:54:18;;;;;;;8.25;2.47;;;;;;;;;;5075749;28;20041;-62
2021/04/27 06:57:04;;;;;;;10.15;2.78;;;;;;;;;;5075633;28;20057;-62
2021/04/27 06:59:49;;;;;;;8.23;2.92;;;;;;;;;;5074954;28;20053;-62
2021/04/27 07:02:35;;;;;;;4.22;2.22;;;;;;;;;;5075364;28;20048;-61
2021/04/27 07:05:20;;;;;;;4.47;1.98;;;;;;;;;;5075426;28;20052;-62
2021/04/27 07:08:06;;;;;;;2.67;1.98;;;;;;;;;;5075330;28;20127;-62
2021/04/27 07:10:53;;;;;;;3.45;1.73;;;;;;;;;;5074114;28;20048;-62
2021/04/27 07:13:38;;;;;;;3.97;2.10;;;;;;;;;;5075401;28;20072;-62
2021/04/27 07:16:24;;;;;;;3.35;2.03;;;;;;;;;;5075052;28;20387;-62
2021/04/27 07:19:09;;;;;;;4.40;2.25;;;;;;;;;;5075073;28;20046;-62
2021/04/27 07:21:54;;;;;;;2.78;1.55;;;;;;;;;;5075091;28;20048;-62
2021/04/27 07:24:40;;;;;;;6.40;1.77;;;;;;;;;;5075128;28;20049;-62
2021/04/27 07:27:25;;;;;;;11.45;2.40;;;;;;;;;;5074819;28;20048;-62
2021/04/27 07:30:11;;;;;;;5.50;2.13;;;;;;;;;;5074572;28;20155;-62
2021/04/27 07:32:56;;;;;;;4.03;1.85;;;;;;;;;;5074984;28;20505;-62
2021/04/27 07:35:41;;;;;;;4.97;1.65;;;;;;;;;;5074727;28;20529;-62
2021/04/27 07:38:28;;;;;;;4.78;2.00;;;;;;;;;;5074955;28;20052;-62
2021/04/27 07:41:13;;;;;;;5.35;2.38;;;;;;;;;;5074105;28;20048;-62
2021/04/27 07:43:58;;;;;;;5.57;2.00;;;;;;;;;;5069319;28;20482;-62
2021/04/27 07:46:43;;;;;;;6.90;1.80;;;;;;;;;;5071835;28;20033;-62
2021/04/27 07:49:29;;;;;;;4.93;1.98;;;;;;;;;;5073875;28;20482;-62
2021/04/27 07:52:14;;;;;;;4.30;2.30;;;;;;;;;;5073855;28;20044;-62
2021/04/27 07:54:59;;;;;;;4.78;2.53;;;;;;;;;;5054737;28;20086;-62
2021/04/27 07:57:45;;;;;;;4.70;2.05;;;;;;;;;;5054008;28;20048;-62
2021/04/27 08:00:30;;;;;;;9.85;2.75;;;;;;;;;;5053518;28;20459;-62
2021/04/27 08:03:16;;;;;;;7.47;2.00;;;;;;;;;;5074022;28;20044;-63
2021/04/27 08:06:01;;;;;;;5.50;2.20;;;;;;;;;;5074423;28;20048;-63
2021/04/27 08:08:46;;;;;;;13.43;2.80;;;;;;;;;;5074322;28;20045;-63
2021/04/27 08:11:32;;;;;;;6.40;2.10;;;;;;;;;;5073586;28;20707;-62
2021/04/27 08:14:18;;;;;;;7.22;2.42;;;;;;;;;;5074114;28;20490;-62
2021/04/27 08:17:03;;;;;;;6.28;2.97;;;;;;;;;;5074109;28;20076;-62
2021/04/27 08:19:49;;;;;;;3.67;1.77;;;;;;;;;;5073694;28;20060;-62
2021/04/27 08:22:34;;;;;;;3.47;1.75;;;;;;;;;;5073760;28;20656;-62
2021/04/27 08:25:19;;;;;;;6.15;1.98;;;;;;;;;;5073955;28;20052;-62
2021/04/27 08:28:05;;;;;;;11.00;2.10;;;;;;;;;;5073806;28;20523;-62
2021/04/27 08:30:50;;;;;;;5.00;1.83;;;;;;;;;;5073627;28;20045;-63
2021/04/27 08:33:36;;;;;;;4.38;1.60;;;;;;;;;;5073556;28;20053;-62
2021/04/27 08:36:21;;;;;;;7.25;1.98;;;;;;;;;;5073905;28;20068;-62
2021/04/27 08:39:07;;;;;;;12.00;2.75;;;;;;;;;;5073710;28;20049;-63
2021/04/27 08:41:52;;;;;;;10.27;2.20;;;;;;;;;;5073713;28;20048;-62
2021/04/27 08:44:37;;;;;;;13.73;2.55;;;;;;;;;;5073498;28;20048;-62
2021/04/27 08:47:24;;;;;;;12.13;2.20;;;;;;;;;;5073150;28;20048;-63
2021/04/27 08:50:10;;;;;;;5.95;2.10;;;;;;;;;;5072920;28;20044;-63
2021/04/27 08:52:55;;;;;;;8.98;1.95;;;;;;;;;;5073030;28;20086;-63
2021/04/27 08:55:40;;;;;;;2.97;1.80;;;;;;;;;;5073532;28;20048;-63
2021/04/27 08:58:26;;;;;;;8.85;1.77;;;;;;;;;;5073211;28;20052;-62
2021/04/27 09:01:11;;;;;;;6.55;2.10;;;;;;;;;;5072831;28;20060;-63
2021/04/27 09:03:59;;;;;;;8.25;2.50;;;;;;;;;;5072898;28;20498;-62
2021/04/27 09:06:47;;;;;;;23.42;2.85;;;;;;;;;;5072975;28;20048;-62
2021/04/27 09:09:46;;;;;;;13.88;2.92;;;;;;;;;;5071693;28;20064;-63
2021/04/27 09:12:32;;;;;;;8.52;2.50;;;;;;;;;;5073085;28;20055;-62
2021/04/27 09:15:27;;;;;;;20.75;2.58;;;;;;;;;;5072936;28;20367;-62
2021/04/27 09:18:29;;;;;;;9.00;2.08;;;;;;;;;;5072959;28;20083;-62
2021/04/27 09:21:14;;;;;;;12.20;3.15;;;;;;;;;;5072583;28;20048;-62
2021/04/27 09:24:00;;;;;;;4.60;1.90;;;;;;;;;;5072555;28;20048;-63
2021/04/27 09:26:45;;;;;;;9.77;2.45;;;;;;;;;;5071844;28;20049;-63
2021/04/27 09:29:31;;;;;;;9.65;3.00;;;;;;;;;;5071339;28;20136;-63
2021/04/27 09:32:29;;;;;;;4.03;1.77;;;;;;;;;;5072518;28;20086;-63
2021/04/27 09:35:33;;;;;;;4.30;1.73;;;;;;;;;;5072219;28;20037;-63
2021/04/27 09:38:18;;;;;;;6.22;2.78;;;;;;;;;;5072427;28;20048;-63
2021/04/27 09:41:05;;;;;;;18.75;2.53;;;;;;;;;;5072296;28;20051;-63
2021/04/27 09:43:50;;;;;;;11.40;2.42;;;;;;;;;;5071402;28;20048;-63
2021/04/27 09:46:35;;;;;;;7.22;1.90;;;;;;;;;;5071915;28;20493;-64
2021/04/27 09:49:30;;;;;;;3.90;1.60;;;;;;;;;;5072468;28;20370;-63
2021/04/27 09:52:15;;;;;;;2.58;1.73;;;;;;;;;;5072779;28;20048;-63
2021/04/27 09:55:01;;;;;;;2.28;1.65;;;;;;;;;;5072051;28;20090;-63
2021/04/27 09:57:50;;;;;;;6.93;1.92;;;;;;;;;;5071448;28;20055;-63
2021/04/27 10:00:36;;;;;;;8.40;1.75;;;;;;;;;;5072053;28;20045;-63
2021/04/27 10:03:21;;;;;;;5.90;1.80;;;;;;;;;;5072102;28;20494;-63
2021/04/27 10:06:06;;;;;;;3.90;1.80;;;;;;;;;;5071101;28;20131;-64
2021/04/27 10:08:52;;;;;;;5.45;2.28;;;;;;;;;;5071593;28;20119;-63
2021/04/27 10:11:37;;;;;;;4.10;1.50;;;;;;;;;;5070778;28;20052;-64
2021/04/27 10:14:22;;;;;;;7.38;1.90;;;;;;;;;;5072016;28;20048;-64
2021/04/27 10:17:15;;;;;;;3.50;1.88;;;;;;;;;;5071850;28;20131;-64
2021/04/27 10:20:01;;;;;;;3.05;1.73;;;;;;;;;;5071644;28;20040;-64
2021/04/27 10:22:47;;;;;;;4.30;1.30;;;;;;;;;;5072083;28;20044;-64
2021/04/27 10:25:33;;;;;;;10.18;1.98;;;;;;;;;;5072010;28;20048;-64
2021/04/27 10:28:18;;;;;;;3.47;1.55;;;;;;;;;;5071616;28;20045;-64
2021/04/27 10:31:03;;;;;;;4.13;1.77;;;;;;;;;;5071681;28;20044;-63
2021/04/27 10:34:02;;;;;;;1.98;1.77;;;;;;;;;;5070879;28;20404;-63
2021/04/27 10:36:47;;;;;;;11.68;3.15;;;;;;;;;;5071678;28;20060;-63
2021/04/27 10:39:46;;;;;;;3.40;1.30;;;;;;;;;;5071642;28;20072;-64
2021/04/27 10:42:33;;;;;;;4.05;2.08;;;;;;;;;;5071980;28;20379;-64
2021/04/27 10:45:19;;;;;;;5.00;1.70;;;;;;;;;;5071915;28;20045;-65
2021/04/27 10:48:04;;;;;;;4.00;1.50;;;;;;;;;;5070568;28;20460;-64
2021/04/27 10:50:50;;;;;;;3.53;1.40;;;;;;;;;;5071281;28;20502;-63
2021/04/27 10:53:39;;;;;;;2.03;1.42;;;;;;;;;;5071616;28;20075;-64
2021/04/27 10:56:39;;;;;;;2.05;1.35;;;;;;;;;;5071717;28;20231;-63
2021/04/27 10:59:25;;;;;;;3.97;2.30;;;;;;;;;;5071238;28;20045;-63
2021/04/27 11:02:13;;;;;;;2.70;1.77;;;;;;;;;;5071461;28;20498;-64
2021/04/27 11:05:01;;;;;;;3.72;1.73;;;;;;;;;;5071601;28;20053;-64
2021/04/27 11:07:47;;;;;;;1.85;1.45;;;;;;;;;;5071235;28;20044;-64
2021/04/27 11:10:32;;;;;;;6.13;1.67;;;;;;;;;;5071169;28;20040;-63
2021/04/27 11:13:17;;;;;;;1.75;1.38;;;;;;;;;;5071635;28;20045;-63
2021/04/27 11:16:03;;;;;;;2.70;1.45;;;;;;;;;;5071198;28;20409;-64
2021/04/27 11:18:48;;;;;;;4.78;1.42;;;;;;;;;;5070268;28;20044;-63
2021/04/27 11:21:33;;;;;;;4.00;1.58;;;;;;;;;;5072251;28;20052;-64
2021/04/27 11:24:31;;;;;;;4.78;1.40;;;;;;;;;;5074523;28;20482;-64
2021/04/27 11:27:23;;;;;;;2.10;1.70;;;;;;;;;;5074890;28;20040;-65
2021/04/27 11:30:12;;;;;;;4.00;1.70;;;;;;;;;;5074350;28;20530;-65
2021/04/27 11:33:02;;;;;;;2.10;1.40;;;;;;;;;;5073776;28;20051;-64
2021/04/27 11:35:47;;;;;;;3.65;1.70;;;;;;;;;;5074950;28;20048;-64
2021/04/27 11:38:33;;;;;;;4.18;1.35;;;;;;;;;;5074579;28;20119;-64
2021/04/27 11:41:18;;;;;;;1.58;1.48;;;;;;;;;;5074010;28;20095;-65
2021/04/27 11:44:04;;;;;;;4.18;1.63;;;;;;;;;;5073215;28;20505;-64
2021/04/27 11:47:04;;;;;;;5.53;1.52;;;;;;;;;;5074304;28;20522;-64
2021/04/27 11:49:55;;;;;;;2.70;1.73;;;;;;;;;;5073699;28;20502;-64
2021/04/27 11:53:01;;;;;;;3.10;1.60;;;;;;;;;;5074505;28;20044;-64
2021/04/27 11:55:50;;;;;;;6.47;1.45;;;;;;;;;;5074395;28;20144;-64
2021/04/27 11:58:39;;;;;;;2.90;1.30;;;;;;;;;;5074488;28;20123;-64
2021/04/27 12:01:24;;;;;;;2.92;1.70;;;;;;;;;;5073973;28;20048;-63
2021/04/27 12:04:10;;;;;;;4.40;1.48;;;;;;;;;;5074250;28;20048;-63
2021/04/27 12:07:01;;;;;;;5.55;1.77;;;;;;;;;;5073279;28;20041;-63
2021/04/27 12:09:47;;;;;;;4.82;1.45;;;;;;;;;;5073535;28;20045;-64
2021/04/27 12:12:32;;;;;;;4.28;1.70;;;;;;;;;;5074068;28;20123;-64
2021/04/27 12:15:22;;;;;;;4.60;1.77;;;;;;;;;;5074124;28;20041;-64
2021/04/27 12:18:11;;;;;;;3.13;1.70;;;;;;;;;;5074164;28;20048;-63
2021/04/27 12:20:56;;;;;;;3.17;1.98;;;;;;;;;;5073446;28;20033;-64
2021/04/27 12:23:42;;;;;;;3.45;1.83;;;;;;;;;;5073993;28;20052;-64
2021/04/27 12:26:28;;;;;;;1.92;1.40;;;;;;;;;;5073899;28;20047;-64
2021/04/27 12:29:13;;;;;;;4.50;1.50;;;;;;;;;;5072675;28;20049;-64
2021/04/27 12:32:03;;;;;;;4.38;1.75;;;;;;;;;;5073195;28;20049;-64
2021/04/27 12:34:54;;;;;;;3.88;1.80;;;;;;;;;;5073670;28;20193;-63
2021/04/27 12:37:43;;;;;;;4.45;1.92;;;;;;;;;;5073580;28;20170;-64
2021/04/27 12:40:29;;;;;;;3.53;1.80;;;;;;;;;;5073316;28;20055;-64
2021/04/27 12:43:14;;;;;;;2.60;1.60;;;;;;;;;;5053609;28;20125;-64
2021/04/27 12:46:02;;;;;;;5.40;1.70;;;;;;;;;;5063205;28;20094;-63
2021/04/27 12:48:47;;;;;;;3.22;1.90;;;;;;;;;;5072800;28;20040;-64
2021/04/27 12:51:32;;;;;;;4.53;1.85;;;;;;;;;;5071879;28;20047;-64
2021/04/27 12:54:27;;;;;;;3.50;2.03;;;;;;;;;;5097931;22;20056;-64
2021/04/27 12:57:14;;;;;;;4.72;2.00;;;;;;;;;;5053310;28;20449;-63
2021/04/27 13:00:00;;;;;;;4.88;2.05;;;;;;;;;;5053030;28;20084;-64
2021/04/27 13:02:45;;;;;;;4.32;2.08;;;;;;;;;;5033040;28;20111;-64
2021/04/27 13:05:34;;;;;;;3.67;1.80;;;;;;;;;;5037300;28;20055;-64
2021/04/27 13:08:22;;;;;;;4.20;2.03;;;;;;;;;;5043578;28;20040;-64
2021/04/27 13:11:08;;;;;;;3.08;1.98;;;;;;;;;;5041883;28;20037;-63
2021/04/27 13:13:53;;;;;;;4.13;1.67;;;;;;;;;;5042651;28;20042;-64
2021/04/27 13:16:38;;;;;;;2.50;1.88;;;;;;;;;;5046165;28;20041;-64
2021/04/27 13:19:24;;;;;;;3.72;1.90;;;;;;;;;;5052641;28;20087;-63
2021/04/27 13:22:14;;;;;;;3.95;2.00;;;;;;;;;;5042419;28;20045;-63
2021/04/27 13:25:04;;;;;;;3.47;2.15;;;;;;;;;;5032961;28;20077;-63
2021/04/27 13:27:50;;;;;;;2.33;1.60;;;;;;;;;;5032608;28;20049;-64
2021/04/27 13:30:36;;;;;;;3.08;1.70;;;;;;;;;;5032622;28;20042;-63
2021/04/27 13:33:25;;;;;;;3.33;2.17;;;;;;;;;;5049747;28;20041;-64
2021/04/27 13:36:13;;;;;;;3.40;2.08;;;;;;;;;;5052420;28;20045;-64
2021/04/27 13:38:58;;;;;;;2.13;1.92;;;;;;;;;;5065579;28;20049;-64
2021/04/27 13:41:44;;;;;;;4.13;1.83;;;;;;;;;;5051248;28;20048;-64
2021/04/27 13:44:29;;;;;;;6.65;2.50;;;;;;;;;;5031680;28;20045;-64
2021/04/27 13:47:15;;;;;;;5.22;2.33;;;;;;;;;;5032447;28;20045;-64
2021/04/27 13:50:00;;;;;;;4.80;2.63;;;;;;;;;;5032096;28;20076;-64
2021/04/27 13:52:45;;;;;;;2.28;2.08;;;;;;;;;;5038362;28;20060;-63
2021/04/27 13:55:31;;;;;;;5.43;2.05;;;;;;;;;;5052403;28;20072;-64
2021/04/27 13:58:17;;;;;;;5.15;2.35;;;;;;;;;;5052237;28;20049;-63
2021/04/27 14:01:02;;;;;;;4.55;1.95;;;;;;;;;;5052957;28;20041;-63
2021/04/27 14:03:48;;;;;;;6.82;3.65;;;;;;;;;;5039821;28;20037;-64
2021/04/27 14:06:33;;;;;;;2.10;1.90;;;;;;;;;;5032269;28;20046;-64
2021/04/27 14:09:19;;;;;;;8.35;2.20;;;;;;;;;;5031928;28;20412;-64
2021/04/27 14:12:04;;;;;;;6.30;2.20;;;;;;;;;;5032011;28;20060;-64
2021/04/27 14:14:49;;;;;;;2.88;1.60;;;;;;;;;;5049670;28;20445;-64
2021/04/27 14:17:35;;;;;;;4.53;2.47;;;;;;;;;;5051931;28;20049;-64
2021/04/27 14:20:21;;;;;;;4.93;1.90;;;;;;;;;;5051973;28;20103;-64
2021/04/27 14:23:07;;;;;;;3.53;1.85;;;;;;;;;;5051142;28;20053;-63
2021/04/27 14:25:52;;;;;;;5.68;1.80;;;;;;;;;;5031929;28;20058;-63
2021/04/27 14:28:38;;;;;;;4.75;1.65;;;;;;;;;;5031840;28;20045;-63
2021/04/27 14:31:23;;;;;;;2.22;1.73;;;;;;;;;;5031817;28;20081;-63
2021/04/27 14:34:08;;;;;;;3.88;2.65;;;;;;;;;;5038502;28;20053;-63
2021/04/27 14:36:54;;;;;;;3.42;1.40;;;;;;;;;;5051978;28;20045;-63
2021/04/27 14:39:39;;;;;;;3.03;2.00;;;;;;;;;;5051509;28;20139;-63
2021/04/27 14:42:25;;;;;;;7.38;2.10;;;;;;;;;;5051517;28;20045;-63
2021/04/27 14:45:11;;;;;;;3.33;1.60;;;;;;;;;;5039880;28;20050;-63
2021/04/27 14:47:57;;;;;;;2.83;1.60;;;;;;;;;;5031733;28;20045;-67
2021/04/27 14:50:42;;;;;;;5.00;1.80;;;;;;;;;;5031600;28;20041;-63
2021/04/27 14:53:27;;;;;;;4.25;1.60;;;;;;;;;;5031599;28;20050;-63
2021/04/27 14:56:13;;;;;;;2.78;1.52;;;;;;;;;;5040529;28;20041;-63
2021/04/27 14:58:59;;;;;;;4.43;1.70;;;;;;;;;;5043906;28;20057;-63
2021/04/27 15:01:44;;;;;;;1.58;1.42;;;;;;;;;;5041699;28;20041;-63
2021/04/27 15:04:30;;;;;;;6.18;1.70;;;;;;;;;;5042004;28;20045;-63
2021/04/27 15:07:16;;;;;;;2.05;1.73;;;;;;;;;;5051874;28;20045;-63
2021/04/27 15:10:03;;;;;;;3.63;1.45;;;;;;;;;;5055183;28;20053;-63
2021/04/27 15:12:48;;;;;;;3.08;1.85;;;;;;;;;;5055211;28;20041;-63
2021/04/27 15:15:34;;;;;;;3.15;1.48;;;;;;;;;;5048611;28;20090;-63
2021/04/27 15:18:19;;;;;;;4.22;1.70;;;;;;;;;;5035226;28;20045;-63
2021/04/27 15:21:04;;;;;;;6.28;1.77;;;;;;;;;;5034963;28;20128;-63
2021/04/27 15:23:49;;;;;;;4.32;1.67;;;;;;;;;;5034981;28;20045;-63
2021/04/27 15:26:35;;;;;;;3.28;1.63;;;;;;;;;;5046652;28;20487;-63
2021/04/27 15:29:20;;;;;;;6.88;1.80;;;;;;;;;;5054739;28;20132;-63
2021/04/27 15:32:06;;;;;;;1.45;1.25;;;;;;;;;;5054621;28;20513;-64
2021/04/27 15:34:51;;;;;;;2.67;2.47;;;;;;;;;;5054813;28;20514;-62
2021/04/27 15:37:37;;;;;;;1.98;1.42;;;;;;;;;;5051712;28;20439;-63
2021/04/27 15:40:25;;;;;;;1.90;1.63;;;;;;;;;;5034416;28;20515;-63
2021/04/27 15:43:10;;;;;;;5.40;1.40;;;;;;;;;;5034584;28;20480;-63
2021/04/27 15:45:56;;;;;;;2.58;1.65;;;;;;;;;;5034774;28;20053;-63
2021/04/27 15:48:42;;;;;;;4.18;1.60;;;;;;;;;;5034554;28;20041;-63
2021/04/27 15:51:27;;;;;;;1.88;1.55;;;;;;;;;;5034176;28;20483;-63
2021/04/27 15:54:15;;;;;;;4.15;1.60;;;;;;;;;;5034258;28;20087;-64
2021/04/27 15:57:00;;;;;;;4.53;1.88;;;;;;;;;;5034725;28;20049;-63
2021/04/27 15:59:45;;;;;;;5.07;2.03;;;;;;;;;;5034028;28;20045;-63
2021/04/27 16:02:30;;;;;;;6.40;2.00;;;;;;;;;;5034397;28;20053;-63
2021/04/27 16:05:16;;;;;;;2.28;1.23;;;;;;;;;;5047340;28;20054;-63
2021/04/27 16:08:01;;;;;;;4.78;2.13;;;;;;;;;;5044685;28;20049;-63
2021/04/27 16:10:46;;;;;;;3.30;1.45;;;;;;;;;;5053782;28;20045;-63
2021/04/27 16:13:31;;;;;;;3.42;1.45;;;;;;;;;;5053936;28;20499;-63
2021/04/27 16:16:17;;;;;;;6.38;1.90;;;;;;;;;;5040357;28;20045;-63
2021/04/27 16:19:03;;;;;;;2.30;1.38;;;;;;;;;;5032400;28;20145;-63
2021/04/27 16:21:48;;;;;;;2.38;1.50;;;;;;;;;;5031709;28;20041;-63
2021/04/27 16:24:33;;;;;;;2.08;1.40;;;;;;;;;;5046071;28;20053;-63
2021/04/27 16:27:18;;;;;;;1.92;1.45;;;;;;;;;;5043314;28;20499;-63
2021/04/27 16:30:04;;;;;;;2.95;1.38;;;;;;;;;;5048937;28;20041;-63
2021/04/27 16:32:50;;;;;;;4.82;1.58;;;;;;;;;;5043841;28;20393;-63
2021/04/27 16:35:35;;;;;;;2.70;1.70;;;;;;;;;;5041892;28;20057;-63
2021/04/27 16:38:21;;;;;;;5.32;1.27;;;;;;;;;;5036392;28;20045;-62
2021/04/27 16:41:06;;;;;;;3.30;1.63;;;;;;;;;;5063987;28;20037;-63